Omura, Japan
Current Conditions -  °F | °C
As of 7:00 PM on Thursday 29 Jan 2015 (Local Time) from RJFU Reporting Station
Light Rain Light Rain  
Wind Chill: 40°   Ceiling: 3000
Heat Index: 43°   Visibility: 4mi
Dew Point: 41°   Wind: 5mph
Humidity: 93%   Direction: 150°SSE
Pressure: 30.18"   Gusts: NA
Location:  32.91°N, 129.95°E
Report Text: RJFU 291000Z 15004KT 7000 -RA FEW020 BKN030 BKN050 06/05 Q1022
Loading
Personal Weather Stations






























Interactive Weather Map New forecast layout! Learn more

10-Day Weather Forecast

Advertisements
Track Severe Weather on mobile